sensor_id;sensor_type;location;lat;lon;timestamp;pressure;altitude;pressure_sealevel;temperature;humidity
7026;BME280;3554;42.132;24.786;2023-04-04T00:02:09;96815.88;;;9.79;100.00
7026;BME280;3554;42.132;24.786;2023-04-04T00:04:36;96818.72;;;9.76;100.00
7026;BME280;3554;42.132;24.786;2023-04-04T00:07:03;96811.16;;;9.73;100.00
7026;BME280;3554;42.132;24.786;2023-04-04T00:09:30;96825.72;;;9.75;100.00
7026;BME280;3554;42.132;24.786;2023-04-04T00:11:58;96851.50;;;9.80;100.00
7026;BME280;3554;42.132;24.786;2023-04-04T00:14:25;96820.16;;;9.80;100.00
7026;BME280;3554;42.132;24.786;2023-04-04T00:16:52;96636.13;;;9.84;100.00
7026;BME280;3554;42.132;24.786;2023-04-04T00:19:19;96624.41;;;9.79;100.00
7026;BME280;3554;42.132;24.786;2023-04-04T00:21:45;96633.31;;;9.76;100.00
7026;BME280;3554;42.132;24.786;2023-04-04T00:24:12;96625.72;;;9.73;100.00
7026;BME280;3554;42.132;24.786;2023-04-04T00:26:39;96624.84;;;9.84;100.00
7026;BME280;3554;42.132;24.786;2023-04-04T00:29:07;96628.53;;;9.81;100.00
7026;BME280;3554;42.132;24.786;2023-04-04T00:31:34;96627.47;;;9.84;100.00
7026;BME280;3554;42.132;24.786;2023-04-04T00:34:01;96626.38;;;9.86;100.00
7026;BME280;3554;42.132;24.786;2023-04-04T00:36:27;96616.28;;;9.93;100.00
7026;BME280;3554;42.132;24.786;2023-04-04T00:38:54;96636.72;;;10.08;100.00
7026;BME280;3554;42.132;24.786;2023-04-04T00:41:21;96635.84;;;10.09;100.00
7026;BME280;3554;42.132;24.786;2023-04-04T00:43:48;96651.50;;;10.09;100.00
7026;BME280;3554;42.132;24.786;2023-04-04T00:46:16;96634.84;;;10.10;100.00
7026;BME280;3554;42.132;24.786;2023-04-04T00:48:44;96624.75;;;10.06;100.00
7026;BME280;3554;42.132;24.786;2023-04-04T00:51:10;96631.97;;;10.13;100.00
7026;BME280;3554;42.132;24.786;2023-04-04T00:53:37;96626.53;;;10.16;100.00
7026;BME280;3554;42.132;24.786;2023-04-04T00:56:07;96621.75;;;10.21;100.00
7026;BME280;3554;42.132;24.786;2023-04-04T00:58:34;96614.47;;;10.25;100.00
7026;BME280;3554;42.132;24.786;2023-04-04T01:01:01;96606.44;;;10.17;100.00
7026;BME280;3554;42.132;24.786;2023-04-04T01:03:29;96618.53;;;10.38;100.00
7026;BME280;3554;42.132;24.786;2023-04-04T01:05:56;96627.16;;;10.29;100.00
7026;BME280;3554;42.132;24.786;2023-04-04T01:08:25;96562.63;;;9.89;100.00
7026;BME280;3554;42.132;24.786;2023-04-04T01:10:52;96622.31;;;10.25;100.00
7026;BME280;3554;42.132;24.786;2023-04-04T01:13:19;96628.69;;;10.32;100.00
7026;BME280;3554;42.132;24.786;2023-04-04T01:15:46;96633.59;;;10.46;100.00
7026;BME280;3554;42.132;24.786;2023-04-04T01:18:16;96653.72;;;10.34;100.00
7026;BME280;3554;42.132;24.786;2023-04-04T01:20:52;96634.94;;;10.40;100.00
7026;BME280;3554;42.132;24.786;2023-04-04T01:23:20;96641.13;;;10.39;100.00
7026;BME280;3554;42.132;24.786;2023-04-04T01:26:00;96647.94;;;10.31;100.00
7026;BME280;3554;42.132;24.786;2023-04-04T01:28:27;96636.41;;;10.33;100.00
7026;BME280;3554;42.132;24.786;2023-04-04T01:30:54;96630.97;;;10.25;100.00
7026;BME280;3554;42.132;24.786;2023-04-04T01:33:27;96567.53;;;10.03;100.00
7026;BME280;3554;42.132;24.786;2023-04-04T01:36:02;96627.16;;;10.29;100.00
7026;BME280;3554;42.132;24.786;2023-04-04T01:38:37;96628.28;;;10.36;100.00
7026;BME280;3554;42.132;24.786;2023-04-04T01:41:09;96636.25;;;10.35;100.00
7026;BME280;3554;42.132;24.786;2023-04-04T01:43:37;96640.91;;;10.31;100.00
7026;BME280;3554;42.132;24.786;2023-04-04T01:46:04;96628.44;;;10.35;100.00
7026;BME280;3554;42.132;24.786;2023-04-04T01:48:31;96637.88;;;10.26;100.00
7026;BME280;3554;42.132;24.786;2023-04-04T01:50:59;96642.69;;;10.31;100.00
7026;BME280;3554;42.132;24.786;2023-04-04T01:53:26;96651.88;;;10.25;100.00
7026;BME280;3554;42.132;24.786;2023-04-04T01:55:53;96655.78;;;10.31;100.00
7026;BME280;3554;42.132;24.786;2023-04-04T01:58:21;96650.19;;;10.35;100.00
7026;BME280;3554;42.132;24.786;2023-04-04T02:00:48;96656.91;;;10.38;100.00
7026;BME280;3554;42.132;24.786;2023-04-04T02:03:15;96657.97;;;10.46;100.00
7026;BME280;3554;42.132;24.786;2023-04-04T02:05:42;96657.31;;;10.33;100.00
7026;BME280;3554;42.132;24.786;2023-04-04T02:08:08;96659.78;;;10.35;100.00
7026;BME280;3554;42.132;24.786;2023-04-04T02:10:36;96663.69;;;10.40;100.00
7026;BME280;3554;42.132;24.786;2023-04-04T02:13:03;96660.63;;;10.35;100.00
7026;BME280;3554;42.132;24.786;2023-04-04T02:15:32;96675.56;;;10.44;100.00
7026;BME280;3554;42.132;24.786;2023-04-04T02:17:59;96669.88;;;10.39;100.00
7026;BME280;3554;42.132;24.786;2023-04-04T02:20:26;96666.88;;;10.44;100.00
7026;BME280;3554;42.132;24.786;2023-04-04T02:22:54;96664.69;;;10.49;100.00
7026;BME280;3554;42.132;24.786;2023-04-04T02:25:22;96650.75;;;10.39;100.00
7026;BME280;3554;42.132;24.786;2023-04-04T02:27:49;96667.72;;;10.44;100.00
7026;BME280;3554;42.132;24.786;2023-04-04T02:30:16;96664.34;;;10.53;100.00
7026;BME280;3554;42.132;24.786;2023-04-04T02:32:45;96680.03;;;10.53;100.00
7026;BME280;3554;42.132;24.786;2023-04-04T02:35:12;96672.75;;;10.57;100.00
7026;BME280;3554;42.132;24.786;2023-04-04T02:37:38;96675.88;;;10.51;100.00
7026;BME280;3554;42.132;24.786;2023-04-04T02:40:07;96663.28;;;10.65;100.00
7026;BME280;3554;42.132;24.786;2023-04-04T02:42:33;96666.84;;;10.64;100.00
7026;BME280;3554;42.132;24.786;2023-04-04T02:45:00;96660.94;;;10.62;100.00
7026;BME280;3554;42.132;24.786;2023-04-04T02:47:27;96662.88;;;10.60;100.00
7026;BME280;3554;42.132;24.786;2023-04-04T02:49:55;96676.94;;;10.69;100.00
7026;BME280;3554;42.132;24.786;2023-04-04T02:52:22;96672.78;;;10.66;100.00
7026;BME280;3554;42.132;24.786;2023-04-04T02:54:49;96670.31;;;10.65;100.00
7026;BME280;3554;42.132;24.786;2023-04-04T02:57:16;96678.41;;;10.62;100.00
7026;BME280;3554;42.132;24.786;2023-04-04T02:59:42;96685.44;;;10.61;100.00
7026;BME280;3554;42.132;24.786;2023-04-04T03:02:09;96682.69;;;10.63;100.00
7026;BME280;3554;42.132;24.786;2023-04-04T03:04:36;96685.56;;;10.60;100.00
7026;BME280;3554;42.132;24.786;2023-04-04T03:07:04;96683.38;;;10.65;100.00
7026;BME280;3554;42.132;24.786;2023-04-04T03:09:31;96686.13;;;10.63;100.00
7026;BME280;3554;42.132;24.786;2023-04-04T03:11:58;96687.09;;;10.62;100.00
7026;BME280;3554;42.132;24.786;2023-04-04T03:14:25;96688.31;;;10.58;100.00
7026;BME280;3554;42.132;24.786;2023-04-04T03:16:54;96722.41;;;10.36;100.00
7026;BME280;3554;42.132;24.786;2023-04-04T03:19:21;96720.38;;;10.40;100.00
7026;BME280;3554;42.132;24.786;2023-04-04T03:21:49;96723.63;;;10.32;100.00
7026;BME280;3554;42.132;24.786;2023-04-04T03:24:17;96685.09;;;10.14;100.00
7026;BME280;3554;42.132;24.786;2023-04-04T03:26:44;96727.16;;;10.42;100.00
7026;BME280;3554;42.132;24.786;2023-04-04T03:29:11;96724.88;;;10.38;100.00
7026;BME280;3554;42.132;24.786;2023-04-04T03:31:38;96722.03;;;10.61;100.00
7026;BME280;3554;42.132;24.786;2023-04-04T03:34:05;96729.88;;;10.61;100.00
7026;BME280;3554;42.132;24.786;2023-04-04T03:36:33;96743.97;;;10.70;100.00
7026;BME280;3554;42.132;24.786;2023-04-04T03:39:00;96758.22;;;10.56;100.00
7026;BME280;3554;42.132;24.786;2023-04-04T03:41:28;96755.56;;;10.67;100.00
7026;BME280;3554;42.132;24.786;2023-04-04T03:43:55;96753.44;;;10.61;100.00
7026;BME280;3554;42.132;24.786;2023-04-04T03:46:22;96748.94;;;10.52;100.00
7026;BME280;3554;42.132;24.786;2023-04-04T03:48:49;96767.09;;;10.33;100.00
7026;BME280;3554;42.132;24.786;2023-04-04T03:51:22;96755.69;;;10.66;100.00
7026;BME280;3554;42.132;24.786;2023-04-04T03:53:49;96760.91;;;10.34;100.00
7026;BME280;3554;42.132;24.786;2023-04-04T03:56:15;96766.84;;;10.36;100.00
7026;BME280;3554;42.132;24.786;2023-04-04T03:58:43;96770.63;;;10.43;100.00
7026;BME280;3554;42.132;24.786;2023-04-04T04:01:10;96792.06;;;10.37;100.00
7026;BME280;3554;42.132;24.786;2023-04-04T04:03:37;96796.75;;;10.43;100.00
7026;BME280;3554;42.132;24.786;2023-04-04T04:06:04;96798.19;;;10.47;100.00
7026;BME280;3554;42.132;24.786;2023-04-04T04:08:31;96792.13;;;10.47;100.00
7026;BME280;3554;42.132;24.786;2023-04-04T04:11:02;96795.97;;;10.43;100.00
7026;BME280;3554;42.132;24.786;2023-04-04T04:13:29;96797.94;;;10.50;100.00
7026;BME280;3554;42.132;24.786;2023-04-04T04:15:57;96783.63;;;10.34;100.00
7026;BME280;3554;42.132;24.786;2023-04-04T04:18:24;96806.47;;;10.52;100.00
7026;BME280;3554;42.132;24.786;2023-04-04T04:20:55;96807.69;;;10.80;100.00
7026;BME280;3554;42.132;24.786;2023-04-04T04:23:22;96806.44;;;10.84;100.00
7026;BME280;3554;42.132;24.786;2023-04-04T04:25:49;96804.09;;;10.81;100.00
7026;BME280;3554;42.132;24.786;2023-04-04T04:28:16;96809.00;;;10.74;100.00
7026;BME280;3554;42.132;24.786;2023-04-04T04:30:43;96803.25;;;10.80;100.00
7026;BME280;3554;42.132;24.786;2023-04-04T04:33:11;96811.00;;;10.82;100.00
7026;BME280;3554;42.132;24.786;2023-04-04T04:35:38;96803.16;;;10.82;100.00
7026;BME280;3554;42.132;24.786;2023-04-04T04:38:05;96809.59;;;10.78;100.00
7026;BME280;3554;42.132;24.786;2023-04-04T04:40:32;96802.69;;;10.77;100.00
7026;BME280;3554;42.132;24.786;2023-04-04T04:42:59;96811.63;;;10.74;100.00
7026;BME280;3554;42.132;24.786;2023-04-04T04:45:26;96781.72;;;10.67;100.00
7026;BME280;3554;42.132;24.786;2023-04-04T04:47:53;96815.84;;;10.87;100.00
7026;BME280;3554;42.132;24.786;2023-04-04T04:50:21;96822.72;;;10.88;100.00
7026;BME280;3554;42.132;24.786;2023-04-04T04:52:49;96804.94;;;10.82;100.00
7026;BME280;3554;42.132;24.786;2023-04-04T04:55:16;96815.84;;;10.87;100.00
7026;BME280;3554;42.132;24.786;2023-04-04T04:57:42;96820.31;;;10.96;100.00
7026;BME280;3554;42.132;24.786;2023-04-04T05:00:10;96824.13;;;10.92;100.00
7026;BME280;3554;42.132;24.786;2023-04-04T05:02:37;96805.66;;;10.84;100.00
7026;BME280;3554;42.132;24.786;2023-04-04T05:05:05;96830.88;;;10.73;100.00
7026;BME280;3554;42.132;24.786;2023-04-04T05:07:33;96826.06;;;10.58;100.00
7026;BME280;3554;42.132;24.786;2023-04-04T05:10:00;96829.56;;;10.79;100.00
7026;BME280;3554;42.132;24.786;2023-04-04T05:12:26;96828.81;;;10.56;100.00
7026;BME280;3554;42.132;24.786;2023-04-04T05:14:53;96816.41;;;10.69;100.00
7026;BME280;3554;42.132;24.786;2023-04-04T05:17:20;96823.25;;;10.50;100.00
7026;BME280;3554;42.132;24.786;2023-04-04T05:19:47;96827.28;;;10.54;100.00
7026;BME280;3554;42.132;24.786;2023-04-04T05:22:14;96830.28;;;10.49;100.00
7026;BME280;3554;42.132;24.786;2023-04-04T05:24:42;96826.63;;;10.72;100.00
7026;BME280;3554;42.132;24.786;2023-04-04T05:27:09;96835.69;;;10.57;100.00
7026;BME280;3554;42.132;24.786;2023-04-04T05:29:36;96825.75;;;10.51;100.00
7026;BME280;3554;42.132;24.786;2023-04-04T05:32:02;96841.19;;;10.54;100.00
7026;BME280;3554;42.132;24.786;2023-04-04T05:34:29;96836.59;;;10.78;100.00
7026;BME280;3554;42.132;24.786;2023-04-04T05:36:56;96837.56;;;10.66;100.00
7026;BME280;3554;42.132;24.786;2023-04-04T05:39:23;96852.94;;;10.60;100.00
7026;BME280;3554;42.132;24.786;2023-04-04T05:41:51;96832.03;;;10.49;100.00
7026;BME280;3554;42.132;24.786;2023-04-04T05:44:18;96845.56;;;10.54;100.00
7026;BME280;3554;42.132;24.786;2023-04-04T05:46:44;96839.97;;;10.90;100.00
7026;BME280;3554;42.132;24.786;2023-04-04T05:49:11;96861.38;;;10.63;100.00
7026;BME280;3554;42.132;24.786;2023-04-04T05:51:38;96860.91;;;10.58;100.00
7026;BME280;3554;42.132;24.786;2023-04-04T05:54:05;96833.91;;;10.58;100.00
7026;BME280;3554;42.132;24.786;2023-04-04T05:56:32;96873.97;;;10.69;100.00
7026;BME280;3554;42.132;24.786;2023-04-04T05:59:00;96865.41;;;10.67;100.00
7026;BME280;3554;42.132;24.786;2023-04-04T06:01:27;96875.63;;;10.59;100.00
7026;BME280;3554;42.132;24.786;2023-04-04T06:03:55;96878.13;;;10.61;100.00
7026;BME280;3554;42.132;24.786;2023-04-04T06:06:22;96878.72;;;10.64;100.00
7026;BME280;3554;42.132;24.786;2023-04-04T06:08:49;96884.53;;;10.68;100.00
7026;BME280;3554;42.132;24.786;2023-04-04T06:11:15;96884.75;;;10.76;100.00
7026;BME280;3554;42.132;24.786;2023-04-04T06:13:42;96914.94;;;10.80;100.00
7026;BME280;3554;42.132;24.786;2023-04-04T06:16:10;96892.56;;;10.87;100.00
7026;BME280;3554;42.132;24.786;2023-04-04T06:18:37;96899.84;;;10.84;100.00
7026;BME280;3554;42.132;24.786;2023-04-04T06:21:04;96891.84;;;10.85;100.00
7026;BME280;3554;42.132;24.786;2023-04-04T06:23:31;96887.78;;;10.92;100.00
7026;BME280;3554;42.132;24.786;2023-04-04T06:25:57;96894.00;;;10.91;100.00
7026;BME280;3554;42.132;24.786;2023-04-04T06:28:24;96899.56;;;10.87;100.00
7026;BME280;3554;42.132;24.786;2023-04-04T06:30:51;96898.75;;;10.86;100.00
7026;BME280;3554;42.132;24.786;2023-04-04T06:33:19;96895.41;;;10.84;100.00
7026;BME280;3554;42.132;24.786;2023-04-04T06:35:46;96883.16;;;10.85;100.00
7026;BME280;3554;42.132;24.786;2023-04-04T06:38:12;96888.53;;;10.83;100.00
7026;BME280;3554;42.132;24.786;2023-04-04T06:40:39;96897.44;;;10.80;100.00
7026;BME280;3554;42.132;24.786;2023-04-04T06:43:06;96896.34;;;10.94;100.00
7026;BME280;3554;42.132;24.786;2023-04-04T06:45:34;96902.31;;;10.85;100.00
7026;BME280;3554;42.132;24.786;2023-04-04T06:48:02;96899.84;;;10.84;100.00
7026;BME280;3554;42.132;24.786;2023-04-04T06:50:30;96894.56;;;10.95;100.00
7026;BME280;3554;42.132;24.786;2023-04-04T06:52:59;96903.84;;;10.88;100.00
7026;BME280;3554;42.132;24.786;2023-04-04T06:55:26;96903.63;;;10.91;100.00
7026;BME280;3554;42.132;24.786;2023-04-04T06:57:53;96890.94;;;11.07;100.00
7026;BME280;3554;42.132;24.786;2023-04-04T07:00:20;96895.47;;;11.05;100.00
7026;BME280;3554;42.132;24.786;2023-04-04T07:02:47;96889.03;;;11.09;100.00
7026;BME280;3554;42.132;24.786;2023-04-04T07:05:15;96897.19;;;11.15;100.00
7026;BME280;3554;42.132;24.786;2023-04-04T07:07:44;96904.03;;;11.07;100.00
7026;BME280;3554;42.132;24.786;2023-04-04T07:10:11;96898.53;;;11.10;100.00
7026;BME280;3554;42.132;24.786;2023-04-04T07:12:38;96900.13;;;11.22;100.00
7026;BME280;3554;42.132;24.786;2023-04-04T07:15:05;96893.78;;;11.35;100.00
7026;BME280;3554;42.132;24.786;2023-04-04T07:17:36;96907.94;;;11.33;100.00
7026;BME280;3554;42.132;24.786;2023-04-04T07:20:03;96908.66;;;11.35;100.00
7026;BME280;3554;42.132;24.786;2023-04-04T07:22:30;96909.63;;;11.34;100.00
7026;BME280;3554;42.132;24.786;2023-04-04T07:24:58;96918.81;;;11.28;100.00
7026;BME280;3554;42.132;24.786;2023-04-04T07:27:25;96919.16;;;11.24;100.00
7026;BME280;3554;42.132;24.786;2023-04-04T07:29:51;96926.56;;;11.19;100.00
7026;BME280;3554;42.132;24.786;2023-04-04T07:32:18;96918.59;;;11.20;100.00
7026;BME280;3554;42.132;24.786;2023-04-04T07:34:45;96912.84;;;11.26;100.00
7026;BME280;3554;42.132;24.786;2023-04-04T07:37:13;96909.09;;;11.40;100.00
7026;BME280;3554;42.132;24.786;2023-04-04T07:39:40;96909.84;;;11.31;100.00
7026;BME280;3554;42.132;24.786;2023-04-04T07:42:08;96900.78;;;11.35;100.00
7026;BME280;3554;42.132;24.786;2023-04-04T07:44:35;96903.66;;;11.32;100.00
7026;BME280;3554;42.132;24.786;2023-04-04T07:47:02;96913.00;;;11.45;100.00
7026;BME280;3554;42.132;24.786;2023-04-04T07:49:29;96907.97;;;11.53;100.00
7026;BME280;3554;42.132;24.786;2023-04-04T07:51:55;96904.94;;;11.58;100.00
7026;BME280;3554;42.132;24.786;2023-04-04T07:54:22;96905.56;;;11.50;100.00
7026;BME280;3554;42.132;24.786;2023-04-04T07:56:49;96899.75;;;11.47;100.00
7026;BME280;3554;42.132;24.786;2023-04-04T07:59:17;96891.34;;;11.64;100.00
7026;BME280;3554;42.132;24.786;2023-04-04T08:01:44;96891.34;;;11.64;100.00
7026;BME280;3554;42.132;24.786;2023-04-04T08:04:11;96890.63;;;11.62;100.00
7026;BME280;3554;42.132;24.786;2023-04-04T08:06:38;96884.31;;;11.64;100.00
7026;BME280;3554;42.132;24.786;2023-04-04T08:09:04;96877.78;;;11.79;100.00
7026;BME280;3554;42.132;24.786;2023-04-04T08:11:31;96829.06;;;11.67;100.00
7026;BME280;3554;42.132;24.786;2023-04-04T08:13:58;96876.34;;;11.96;100.00
7026;BME280;3554;42.132;24.786;2023-04-04T08:16:26;96872.75;;;11.97;100.00
7026;BME280;3554;42.132;24.786;2023-04-04T08:18:53;96871.53;;;12.01;100.00
7026;BME280;3554;42.132;24.786;2023-04-04T08:21:20;96878.44;;;12.02;100.00
7026;BME280;3554;42.132;24.786;2023-04-04T08:23:47;96878.56;;;12.01;100.00
7026;BME280;3554;42.132;24.786;2023-04-04T08:26:14;96892.91;;;11.97;100.00
7026;BME280;3554;42.132;24.786;2023-04-04T08:28:40;96894.00;;;11.94;100.00
7026;BME280;3554;42.132;24.786;2023-04-04T08:31:07;96887.97;;;12.03;100.00
7026;BME280;3554;42.132;24.786;2023-04-04T08:33:36;96890.66;;;12.22;100.00
7026;BME280;3554;42.132;24.786;2023-04-04T08:36:03;96890.66;;;12.22;100.00
7026;BME280;3554;42.132;24.786;2023-04-04T08:38:29;96900.44;;;12.20;100.00
7026;BME280;3554;42.132;24.786;2023-04-04T08:40:56;96907.75;;;12.17;100.00
7026;BME280;3554;42.132;24.786;2023-04-04T08:43:24;96913.16;;;12.25;100.00
7026;BME280;3554;42.132;24.786;2023-04-04T08:45:52;96900.03;;;12.15;100.00
7026;BME280;3554;42.132;24.786;2023-04-04T08:48:20;96912.25;;;12.35;100.00
7026;BME280;3554;42.132;24.786;2023-04-04T08:50:53;96921.09;;;12.53;100.00
7026;BME280;3554;42.132;24.786;2023-04-04T08:53:22;96931.03;;;12.50;100.00
7026;BME280;3554;42.132;24.786;2023-04-04T08:55:49;96940.34;;;12.63;100.00
7026;BME280;3554;42.132;24.786;2023-04-04T08:58:16;96952.38;;;12.75;100.00
7026;BME280;3554;42.132;24.786;2023-04-04T09:00:43;96963.16;;;12.82;100.00
7026;BME280;3554;42.132;24.786;2023-04-04T09:03:14;96991.44;;;12.59;100.00
7026;BME280;3554;42.132;24.786;2023-04-04T09:05:45;97011.16;;;12.54;100.00
7026;BME280;3554;42.132;24.786;2023-04-04T09:08:15;97014.84;;;12.51;100.00
7026;BME280;3554;42.132;24.786;2023-04-04T09:10:44;97029.09;;;12.49;100.00
7026;BME280;3554;42.132;24.786;2023-04-04T09:13:12;97030.66;;;12.61;100.00
7026;BME280;3554;42.132;24.786;2023-04-04T09:15:40;97049.53;;;12.55;100.00
7026;BME280;3554;42.132;24.786;2023-04-04T09:18:08;97056.53;;;12.65;100.00
7026;BME280;3554;42.132;24.786;2023-04-04T09:20:37;97069.88;;;12.62;100.00
7026;BME280;3554;42.132;24.786;2023-04-04T09:23:05;97056.25;;;12.68;100.00
7026;BME280;3554;42.132;24.786;2023-04-04T09:25:35;97058.47;;;13.03;100.00
7026;BME280;3554;42.132;24.786;2023-04-04T09:28:02;97066.38;;;13.13;100.00
7026;BME280;3554;42.132;24.786;2023-04-04T09:30:46;97040.94;;;13.13;100.00
7026;BME280;3554;42.132;24.786;2023-04-04T09:33:14;97069.41;;;13.18;100.00
7026;BME280;3554;42.132;24.786;2023-04-04T09:35:44;97097.03;;;13.03;100.00
7026;BME280;3554;42.132;24.786;2023-04-04T09:38:11;97125.56;;;12.96;100.00
7026;BME280;3554;42.132;24.786;2023-04-04T09:40:41;97113.50;;;13.14;100.00
7026;BME280;3554;42.132;24.786;2023-04-04T09:43:11;97132.78;;;13.24;100.00
7026;BME280;3554;42.132;24.786;2023-04-04T09:45:39;97158.50;;;13.30;100.00
7026;BME280;3554;42.132;24.786;2023-04-04T09:48:08;97158.91;;;13.26;100.00
7026;BME280;3554;42.132;24.786;2023-04-04T09:50:36;97180.00;;;13.45;100.00
7026;BME280;3554;42.132;24.786;2023-04-04T09:53:15;97186.47;;;13.41;100.00
7026;BME280;3554;42.132;24.786;2023-04-04T09:55:48;97195.13;;;13.32;100.00
7026;BME280;3554;42.132;24.786;2023-04-04T09:58:16;97200.72;;;13.48;100.00
7026;BME280;3554;42.132;24.786;2023-04-04T10:00:45;97161.72;;;13.04;100.00
7026;BME280;3554;42.132;24.786;2023-04-04T10:03:15;97221.03;;;13.36;100.00
7026;BME280;3554;42.132;24.786;2023-04-04T10:05:43;97234.97;;;13.37;100.00
7026;BME280;3554;42.132;24.786;2023-04-04T10:08:15;97246.91;;;13.41;100.00
7026;BME280;3554;42.132;24.786;2023-04-04T10:10:48;97226.06;;;13.49;100.00
7026;BME280;3554;42.132;24.786;2023-04-04T10:13:22;97230.16;;;13.72;100.00
7026;BME280;3554;42.132;24.786;2023-04-04T10:15:51;97245.00;;;13.82;100.00
7026;BME280;3554;42.132;24.786;2023-04-04T10:18:21;97251.13;;;14.02;100.00
7026;BME280;3554;42.132;24.786;2023-04-04T10:20:49;97267.28;;;13.88;100.00
7026;BME280;3554;42.132;24.786;2023-04-04T10:23:16;97279.84;;;13.45;100.00
7026;BME280;3554;42.132;24.786;2023-04-04T10:25:44;97264.72;;;13.67;100.00
7026;BME280;3554;42.132;24.786;2023-04-04T10:28:11;97262.28;;;13.75;100.00
7026;BME280;3554;42.132;24.786;2023-04-04T10:30:41;97232.47;;;14.15;100.00
7026;BME280;3554;42.132;24.786;2023-04-04T10:33:15;97231.41;;;14.36;100.00
7026;BME280;3554;42.132;24.786;2023-04-04T10:35:50;97214.50;;;14.48;100.00
7026;BME280;3554;42.132;24.786;2023-04-04T10:38:20;97229.59;;;14.65;100.00
7026;BME280;3554;42.132;24.786;2023-04-04T10:40:52;97236.97;;;14.52;100.00
7026;BME280;3554;42.132;24.786;2023-04-04T10:43:24;97212.50;;;15.08;100.00
7026;BME280;3554;42.132;24.786;2023-04-04T10:45:54;97214.44;;;15.06;100.00
7026;BME280;3554;42.132;24.786;2023-04-04T10:48:25;97198.38;;;15.36;100.00
7026;BME280;3554;42.132;24.786;2023-04-04T10:50:54;97206.94;;;15.01;100.00
7026;BME280;3554;42.132;24.786;2023-04-04T10:53:21;97187.25;;;15.15;100.00
7026;BME280;3554;42.132;24.786;2023-04-04T10:55:48;97162.97;;;15.38;100.00
7026;BME280;3554;42.132;24.786;2023-04-04T10:58:16;97170.28;;;14.80;100.00
7026;BME280;3554;42.132;24.786;2023-04-04T11:00:50;97149.34;;;14.69;100.00
7026;BME280;3554;42.132;24.786;2023-04-04T11:03:19;97148.81;;;14.66;100.00
7026;BME280;3554;42.132;24.786;2023-04-04T11:05:46;97151.34;;;14.39;100.00
7026;BME280;3554;42.132;24.786;2023-04-04T11:08:18;97125.72;;;14.50;100.00
7026;BME280;3554;42.132;24.786;2023-04-04T11:10:46;97126.88;;;14.84;100.00
7026;BME280;3554;42.132;24.786;2023-04-04T11:13:16;97111.88;;;14.85;100.00
7026;BME280;3554;42.132;24.786;2023-04-04T11:15:52;97035.13;;;15.34;100.00
7026;BME280;3554;42.132;24.786;2023-04-04T11:18:19;97309.66;;;15.85;100.00
7026;BME280;3554;42.132;24.786;2023-04-04T11:20:48;97376.63;;;16.12;100.00
7026;BME280;3554;42.132;24.786;2023-04-04T11:23:18;97291.81;;;15.70;100.00
7026;BME280;3554;42.132;24.786;2023-04-04T11:25:51;97175.22;;;15.39;100.00
7026;BME280;3554;42.132;24.786;2023-04-04T11:28:25;97068.06;;;15.21;100.00
7026;BME280;3554;42.132;24.786;2023-04-04T11:31:21;96982.03;;;14.84;100.00
7026;BME280;3554;42.132;24.786;2023-04-04T11:33:57;96595.13;;;14.65;100.00
7026;BME280;3554;42.132;24.786;2023-04-04T11:36:51;96241.56;;;14.81;100.00
7026;BME280;3554;42.132;24.786;2023-04-04T11:39:26;95674.47;;;14.75;100.00
7026;BME280;3554;42.132;24.786;2023-04-04T11:41:54;95353.84;;;14.64;100.00
7026;BME280;3554;42.132;24.786;2023-04-04T11:44:22;95116.09;;;14.72;100.00
7026;BME280;3554;42.132;24.786;2023-04-04T11:46:54;94911.47;;;14.80;100.00
7026;BME280;3554;42.132;24.786;2023-04-04T11:49:24;94799.13;;;15.14;100.00
7026;BME280;3554;42.132;24.786;2023-04-04T11:51:53;94700.47;;;15.42;100.00
7026;BME280;3554;42.132;24.786;2023-04-04T11:54:20;94645.28;;;15.67;100.00
7026;BME280;3554;42.132;24.786;2023-04-04T11:56:49;94640.91;;;15.92;100.00
7026;BME280;3554;42.132;24.786;2023-04-04T11:59:17;94638.03;;;16.00;100.00
7026;BME280;3554;42.132;24.786;2023-04-04T12:01:44;94705.59;;;15.94;100.00
7026;BME280;3554;42.132;24.786;2023-04-04T12:04:13;94706.25;;;15.83;100.00
7026;BME280;3554;42.132;24.786;2023-04-04T12:06:42;94706.44;;;15.88;100.00
7026;BME280;3554;42.132;24.786;2023-04-04T12:09:09;94741.44;;;16.08;100.00
7026;BME280;3554;42.132;24.786;2023-04-04T12:11:41;94753.25;;;15.99;100.00
7026;BME280;3554;42.132;24.786;2023-04-04T12:14:16;95078.19;;;16.15;100.00
7026;BME280;3554;42.132;24.786;2023-04-04T12:16:43;95171.53;;;16.07;100.00
7026;BME280;3554;42.132;24.786;2023-04-04T12:19:10;95052.63;;;16.22;100.00
7026;BME280;3554;42.132;24.786;2023-04-04T12:21:37;94709.38;;;16.12;100.00
7026;BME280;3554;42.132;24.786;2023-04-04T12:24:05;94825.09;;;15.56;100.00
7026;BME280;3554;42.132;24.786;2023-04-04T12:26:33;94833.63;;;15.45;100.00
7026;BME280;3554;42.132;24.786;2023-04-04T12:29:00;94804.19;;;14.95;100.00
7026;BME280;3554;42.132;24.786;2023-04-04T12:31:29;94773.91;;;14.33;100.00
7026;BME280;3554;42.132;24.786;2023-04-04T12:33:56;94682.78;;;14.06;100.00
7026;BME280;3554;42.132;24.786;2023-04-04T12:36:24;94696.22;;;13.76;100.00
7026;BME280;3554;42.132;24.786;2023-04-04T12:38:56;94770.88;;;13.54;100.00
7026;BME280;3554;42.132;24.786;2023-04-04T12:41:23;95002.66;;;13.21;100.00
7026;BME280;3554;42.132;24.786;2023-04-04T12:43:50;95038.00;;;13.25;100.00
7026;BME280;3554;42.132;24.786;2023-04-04T12:46:17;95236.09;;;13.22;100.00
7026;BME280;3554;42.132;24.786;2023-04-04T12:48:47;95272.22;;;13.20;100.00
7026;BME280;3554;42.132;24.786;2023-04-04T12:51:15;95297.59;;;12.82;100.00
7026;BME280;3554;42.132;24.786;2023-04-04T12:53:52;95356.03;;;12.99;100.00
7026;BME280;3554;42.132;24.786;2023-04-04T12:56:24;95427.00;;;12.75;100.00
7026;BME280;3554;42.132;24.786;2023-04-04T12:58:52;95512.44;;;12.77;100.00
7026;BME280;3554;42.132;24.786;2023-04-04T13:01:19;95614.97;;;12.44;100.00
7026;BME280;3554;42.132;24.786;2023-04-04T13:03:48;95730.66;;;12.25;100.00
7026;BME280;3554;42.132;24.786;2023-04-04T13:06:16;95864.34;;;11.91;100.00